sensor_id;sensor_type;location;lat;lon;timestamp;P1;durP1;ratioP1;P2;durP2;ratioP2
15159;SDS011;7680;48.800;9.680;2023-04-06T00:01:05;11.27;;;10.00;;
15159;SDS011;7680;48.800;9.680;2023-04-06T00:03:39;11.03;;;10.03;;
15159;SDS011;7680;48.800;9.680;2023-04-06T00:06:12;10.00;;;9.20;;
15159;SDS011;7680;48.800;9.680;2023-04-06T00:08:47;11.50;;;10.43;;
15159;SDS011;7680;48.800;9.680;2023-04-06T00:11:22;11.57;;;10.50;;
15159;SDS011;7680;48.800;9.680;2023-04-06T00:13:55;10.47;;;9.47;;
15159;SDS011;7680;48.800;9.680;2023-04-06T00:16:28;10.87;;;9.80;;
15159;SDS011;7680;48.800;9.680;2023-04-06T00:19:01;11.50;;;10.50;;
15159;SDS011;7680;48.800;9.680;2023-04-06T00:21:34;10.97;;;9.87;;
15159;SDS011;7680;48.800;9.680;2023-04-06T00:24:07;11.27;;;10.27;;
15159;SDS011;7680;48.800;9.680;2023-04-06T00:26:41;11.37;;;10.33;;
15159;SDS011;7680;48.800;9.680;2023-04-06T00:29:14;10.87;;;9.87;;
15159;SDS011;7680;48.800;9.680;2023-04-06T00:31:47;11.23;;;10.17;;
15159;SDS011;7680;48.800;9.680;2023-04-06T00:34:20;12.37;;;11.27;;
15159;SDS011;7680;48.800;9.680;2023-04-06T00:36:53;11.30;;;10.23;;
15159;SDS011;7680;48.800;9.680;2023-04-06T00:39:26;11.67;;;10.57;;
15159;SDS011;7680;48.800;9.680;2023-04-06T00:42:01;11.37;;;10.27;;
15159;SDS011;7680;48.800;9.680;2023-04-06T00:44:44;11.20;;;10.20;;
15159;SDS011;7680;48.800;9.680;2023-04-06T00:47:17;12.37;;;11.30;;
15159;SDS011;7680;48.800;9.680;2023-04-06T00:49:50;11.33;;;10.33;;
15159;SDS011;7680;48.800;9.680;2023-04-06T00:52:23;12.47;;;11.37;;
15159;SDS011;7680;48.800;9.680;2023-04-06T00:54:56;12.03;;;11.03;;
15159;SDS011;7680;48.800;9.680;2023-04-06T00:57:30;11.97;;;10.77;;
15159;SDS011;7680;48.800;9.680;2023-04-06T01:00:04;12.03;;;10.90;;
15159;SDS011;7680;48.800;9.680;2023-04-06T01:02:38;12.03;;;10.87;;
15159;SDS011;7680;48.800;9.680;2023-04-06T01:05:12;10.90;;;9.80;;
15159;SDS011;7680;48.800;9.680;2023-04-06T01:07:45;11.80;;;10.80;;
15159;SDS011;7680;48.800;9.680;2023-04-06T01:10:24;11.40;;;10.30;;
15159;SDS011;7680;48.800;9.680;2023-04-06T01:12:59;11.17;;;10.17;;
15159;SDS011;7680;48.800;9.680;2023-04-06T01:15:32;10.90;;;9.90;;
15159;SDS011;7680;48.800;9.680;2023-04-06T01:18:09;10.83;;;9.73;;
15159;SDS011;7680;48.800;9.680;2023-04-06T01:20:42;12.00;;;10.57;;
15159;SDS011;7680;48.800;9.680;2023-04-06T01:23:17;11.93;;;10.33;;
15159;SDS011;7680;48.800;9.680;2023-04-06T01:25:50;11.37;;;10.43;;
15159;SDS011;7680;48.800;9.680;2023-04-06T01:28:23;11.23;;;10.33;;
15159;SDS011;7680;48.800;9.680;2023-04-06T01:30:56;11.30;;;10.27;;
15159;SDS011;7680;48.800;9.680;2023-04-06T01:33:29;12.20;;;11.00;;
15159;SDS011;7680;48.800;9.680;2023-04-06T01:36:02;12.00;;;10.90;;
15159;SDS011;7680;48.800;9.680;2023-04-06T01:38:37;12.17;;;11.10;;
15159;SDS011;7680;48.800;9.680;2023-04-06T01:41:10;12.57;;;11.27;;
15159;SDS011;7680;48.800;9.680;2023-04-06T01:43:44;12.10;;;11.00;;
15159;SDS011;7680;48.800;9.680;2023-04-06T01:46:19;11.77;;;10.60;;
15159;SDS011;7680;48.800;9.680;2023-04-06T01:48:52;11.53;;;10.63;;
15159;SDS011;7680;48.800;9.680;2023-04-06T01:51:24;11.83;;;10.77;;
15159;SDS011;7680;48.800;9.680;2023-04-06T01:53:59;11.73;;;10.53;;
15159;SDS011;7680;48.800;9.680;2023-04-06T01:56:32;11.87;;;10.67;;
15159;SDS011;7680;48.800;9.680;2023-04-06T01:59:05;11.47;;;10.47;;
15159;SDS011;7680;48.800;9.680;2023-04-06T02:01:38;12.10;;;11.00;;
15159;SDS011;7680;48.800;9.680;2023-04-06T02:04:11;12.23;;;11.03;;
15159;SDS011;7680;48.800;9.680;2023-04-06T02:06:45;11.93;;;10.87;;
15159;SDS011;7680;48.800;9.680;2023-04-06T02:09:19;11.97;;;10.83;;
15159;SDS011;7680;48.800;9.680;2023-04-06T02:11:52;12.57;;;11.47;;
15159;SDS011;7680;48.800;9.680;2023-04-06T02:14:25;11.53;;;10.57;;
15159;SDS011;7680;48.800;9.680;2023-04-06T02:16:58;11.60;;;10.47;;
15159;SDS011;7680;48.800;9.680;2023-04-06T02:19:31;10.60;;;9.67;;
15159;SDS011;7680;48.800;9.680;2023-04-06T02:22:04;12.33;;;11.23;;
15159;SDS011;7680;48.800;9.680;2023-04-06T02:24:39;11.10;;;10.10;;
15159;SDS011;7680;48.800;9.680;2023-04-06T02:27:12;11.83;;;10.63;;
15159;SDS011;7680;48.800;9.680;2023-04-06T02:29:45;11.27;;;10.27;;
15159;SDS011;7680;48.800;9.680;2023-04-06T02:32:18;11.77;;;10.77;;
15159;SDS011;7680;48.800;9.680;2023-04-06T02:34:51;12.77;;;11.57;;
15159;SDS011;7680;48.800;9.680;2023-04-06T02:37:24;11.07;;;10.07;;
15159;SDS011;7680;48.800;9.680;2023-04-06T02:39:59;11.77;;;10.73;;
15159;SDS011;7680;48.800;9.680;2023-04-06T02:42:32;11.37;;;10.07;;
15159;SDS011;7680;48.800;9.680;2023-04-06T02:45:06;11.47;;;10.53;;
15159;SDS011;7680;48.800;9.680;2023-04-06T02:47:40;11.13;;;10.13;;
15159;SDS011;7680;48.800;9.680;2023-04-06T02:50:14;11.73;;;10.70;;
15159;SDS011;7680;48.800;9.680;2023-04-06T02:52:47;11.67;;;10.47;;
15159;SDS011;7680;48.800;9.680;2023-04-06T02:55:21;11.40;;;10.40;;
15159;SDS011;7680;48.800;9.680;2023-04-06T02:57:54;10.87;;;9.97;;
15159;SDS011;7680;48.800;9.680;2023-04-06T03:00:27;11.53;;;10.43;;
15159;SDS011;7680;48.800;9.680;2023-04-06T03:03:00;11.57;;;10.37;;
15159;SDS011;7680;48.800;9.680;2023-04-06T03:05:33;10.50;;;9.57;;
15159;SDS011;7680;48.800;9.680;2023-04-06T03:08:06;12.00;;;10.90;;
15159;SDS011;7680;48.800;9.680;2023-04-06T03:10:41;12.17;;;10.97;;
15159;SDS011;7680;48.800;9.680;2023-04-06T03:13:14;12.60;;;11.40;;
15159;SDS011;7680;48.800;9.680;2023-04-06T03:15:47;11.13;;;10.13;;
15159;SDS011;7680;48.800;9.680;2023-04-06T03:18:20;11.03;;;10.13;;
15159;SDS011;7680;48.800;9.680;2023-04-06T03:20:55;12.80;;;11.23;;
15159;SDS011;7680;48.800;9.680;2023-04-06T03:23:28;11.73;;;10.63;;
15159;SDS011;7680;48.800;9.680;2023-04-06T03:26:02;11.90;;;10.80;;
15159;SDS011;7680;48.800;9.680;2023-04-06T03:28:36;11.73;;;10.53;;
15159;SDS011;7680;48.800;9.680;2023-04-06T03:31:09;11.43;;;10.33;;
15159;SDS011;7680;48.800;9.680;2023-04-06T03:33:42;11.57;;;10.63;;
15159;SDS011;7680;48.800;9.680;2023-04-06T03:36:14;11.60;;;10.60;;
15159;SDS011;7680;48.800;9.680;2023-04-06T03:38:47;11.43;;;10.33;;
15159;SDS011;7680;48.800;9.680;2023-04-06T03:41:22;11.50;;;10.60;;
15159;SDS011;7680;48.800;9.680;2023-04-06T03:43:55;12.00;;;10.80;;
15159;SDS011;7680;48.800;9.680;2023-04-06T03:46:28;12.90;;;11.73;;
15159;SDS011;7680;48.800;9.680;2023-04-06T03:49:01;11.70;;;10.70;;
15159;SDS011;7680;48.800;9.680;2023-04-06T03:51:34;11.43;;;10.43;;
15159;SDS011;7680;48.800;9.680;2023-04-06T03:54:07;12.23;;;11.13;;
15159;SDS011;7680;48.800;9.680;2023-04-06T03:56:41;12.40;;;11.27;;
15159;SDS011;7680;48.800;9.680;2023-04-06T03:59:14;11.63;;;10.63;;
15159;SDS011;7680;48.800;9.680;2023-04-06T04:01:47;12.40;;;11.17;;
15159;SDS011;7680;48.800;9.680;2023-04-06T04:04:20;11.57;;;10.60;;
15159;SDS011;7680;48.800;9.680;2023-04-06T04:06:53;12.10;;;10.90;;
15159;SDS011;7680;48.800;9.680;2023-04-06T04:09:26;14.40;;;12.07;;
15159;SDS011;7680;48.800;9.680;2023-04-06T04:12:01;11.30;;;10.27;;
15159;SDS011;7680;48.800;9.680;2023-04-06T04:14:34;11.80;;;10.77;;
15159;SDS011;7680;48.800;9.680;2023-04-06T04:17:07;12.80;;;11.60;;
15159;SDS011;7680;48.800;9.680;2023-04-06T04:19:40;12.60;;;11.40;;
15159;SDS011;7680;48.800;9.680;2023-04-06T04:22:13;13.17;;;11.90;;
15159;SDS011;7680;48.800;9.680;2023-04-06T04:24:46;11.90;;;10.70;;
15159;SDS011;7680;48.800;9.680;2023-04-06T04:27:20;14.10;;;12.13;;
15159;SDS011;7680;48.800;9.680;2023-04-06T04:29:53;12.80;;;11.70;;
15159;SDS011;7680;48.800;9.680;2023-04-06T04:32:27;13.87;;;12.60;;
15159;SDS011;7680;48.800;9.680;2023-04-06T04:35:00;13.30;;;12.00;;
15159;SDS011;7680;48.800;9.680;2023-04-06T04:37:33;13.30;;;11.90;;
15159;SDS011;7680;48.800;9.680;2023-04-06T04:40:07;13.50;;;12.23;;
15159;SDS011;7680;48.800;9.680;2023-04-06T04:42:43;13.23;;;11.90;;
15159;SDS011;7680;48.800;9.680;2023-04-06T04:45:16;16.13;;;14.43;;
15159;SDS011;7680;48.800;9.680;2023-04-06T04:47:49;15.53;;;14.03;;
15159;SDS011;7680;48.800;9.680;2023-04-06T04:50:22;14.10;;;12.80;;
15159;SDS011;7680;48.800;9.680;2023-04-06T04:52:55;12.93;;;11.83;;
15159;SDS011;7680;48.800;9.680;2023-04-06T04:55:28;12.27;;;11.17;;
15159;SDS011;7680;48.800;9.680;2023-04-06T04:58:02;12.93;;;11.83;;
15159;SDS011;7680;48.800;9.680;2023-04-06T05:00:35;13.63;;;12.37;;
15159;SDS011;7680;48.800;9.680;2023-04-06T05:03:08;13.23;;;12.03;;
15159;SDS011;7680;48.800;9.680;2023-04-06T05:05:46;13.03;;;11.77;;
15159;SDS011;7680;48.800;9.680;2023-04-06T05:08:20;13.60;;;12.40;;
15159;SDS011;7680;48.800;9.680;2023-04-06T05:10:53;13.27;;;11.97;;
15159;SDS011;7680;48.800;9.680;2023-04-06T05:13:27;13.03;;;11.73;;
15159;SDS011;7680;48.800;9.680;2023-04-06T05:16:01;11.90;;;10.90;;
15159;SDS011;7680;48.800;9.680;2023-04-06T05:18:35;12.67;;;11.53;;
15159;SDS011;7680;48.800;9.680;2023-04-06T05:21:08;12.80;;;11.70;;
15159;SDS011;7680;48.800;9.680;2023-04-06T05:23:42;12.30;;;11.20;;
15159;SDS011;7680;48.800;9.680;2023-04-06T05:26:14;13.30;;;12.20;;
15159;SDS011;7680;48.800;9.680;2023-04-06T05:28:49;12.50;;;11.40;;
15159;SDS011;7680;48.800;9.680;2023-04-06T05:31:22;13.83;;;12.60;;
15159;SDS011;7680;48.800;9.680;2023-04-06T05:33:55;13.17;;;11.97;;
15159;SDS011;7680;48.800;9.680;2023-04-06T05:36:28;13.30;;;12.10;;
15159;SDS011;7680;48.800;9.680;2023-04-06T05:39:03;13.60;;;12.33;;
15159;SDS011;7680;48.800;9.680;2023-04-06T05:41:37;13.63;;;12.33;;
15159;SDS011;7680;48.800;9.680;2023-04-06T05:44:11;13.63;;;12.43;;
15159;SDS011;7680;48.800;9.680;2023-04-06T05:46:44;13.80;;;12.53;;
15159;SDS011;7680;48.800;9.680;2023-04-06T05:49:17;12.20;;;11.13;;
15159;SDS011;7680;48.800;9.680;2023-04-06T05:51:50;11.23;;;10.37;;
15159;SDS011;7680;48.800;9.680;2023-04-06T05:54:23;12.30;;;11.20;;
15159;SDS011;7680;48.800;9.680;2023-04-06T05:56:56;12.43;;;11.23;;
15159;SDS011;7680;48.800;9.680;2023-04-06T05:59:30;11.60;;;10.50;;
15159;SDS011;7680;48.800;9.680;2023-04-06T06:02:03;12.23;;;11.13;;
15159;SDS011;7680;48.800;9.680;2023-04-06T06:04:36;12.07;;;11.07;;
15159;SDS011;7680;48.800;9.680;2023-04-06T06:07:09;13.37;;;12.07;;
15159;SDS011;7680;48.800;9.680;2023-04-06T06:09:43;12.30;;;11.20;;
15159;SDS011;7680;48.800;9.680;2023-04-06T06:12:15;13.40;;;12.10;;
15159;SDS011;7680;48.800;9.680;2023-04-06T06:14:50;12.93;;;11.70;;
15159;SDS011;7680;48.800;9.680;2023-04-06T06:17:23;12.70;;;11.37;;
15159;SDS011;7680;48.800;9.680;2023-04-06T06:19:56;13.17;;;11.93;;
15159;SDS011;7680;48.800;9.680;2023-04-06T06:22:29;13.00;;;11.80;;
15159;SDS011;7680;48.800;9.680;2023-04-06T06:25:02;13.33;;;12.00;;
15159;SDS011;7680;48.800;9.680;2023-04-06T06:27:35;12.80;;;11.60;;
15159;SDS011;7680;48.800;9.680;2023-04-06T06:30:10;11.43;;;10.43;;
15159;SDS011;7680;48.800;9.680;2023-04-06T06:32:43;12.00;;;11.00;;
15159;SDS011;7680;48.800;9.680;2023-04-06T06:35:17;12.30;;;11.20;;
15159;SDS011;7680;48.800;9.680;2023-04-06T06:37:50;12.40;;;11.30;;
15159;SDS011;7680;48.800;9.680;2023-04-06T06:40:23;12.93;;;11.83;;
15159;SDS011;7680;48.800;9.680;2023-04-06T06:42:57;12.10;;;11.17;;
15159;SDS011;7680;48.800;9.680;2023-04-06T06:45:31;12.10;;;11.00;;
15159;SDS011;7680;48.800;9.680;2023-04-06T06:48:05;12.00;;;11.00;;
15159;SDS011;7680;48.800;9.680;2023-04-06T06:50:38;11.93;;;10.83;;
15159;SDS011;7680;48.800;9.680;2023-04-06T06:53:11;11.57;;;10.47;;
15159;SDS011;7680;48.800;9.680;2023-04-06T06:55:44;11.57;;;10.50;;
15159;SDS011;7680;48.800;9.680;2023-04-06T06:58:19;11.30;;;10.27;;
15159;SDS011;7680;48.800;9.680;2023-04-06T07:00:56;11.57;;;10.37;;
15159;SDS011;7680;48.800;9.680;2023-04-06T07:03:30;11.30;;;10.27;;
15159;SDS011;7680;48.800;9.680;2023-04-06T07:06:03;10.97;;;10.07;;
15159;SDS011;7680;48.800;9.680;2023-04-06T07:08:36;12.60;;;11.33;;
15159;SDS011;7680;48.800;9.680;2023-04-06T07:11:09;12.03;;;11.13;;
15159;SDS011;7680;48.800;9.680;2023-04-06T07:13:42;12.70;;;11.57;;
15159;SDS011;7680;48.800;9.680;2023-04-06T07:16:16;11.83;;;10.90;;
15159;SDS011;7680;48.800;9.680;2023-04-06T07:18:50;11.93;;;10.93;;
15159;SDS011;7680;48.800;9.680;2023-04-06T07:21:22;11.87;;;10.77;;
15159;SDS011;7680;48.800;9.680;2023-04-06T07:23:56;11.87;;;10.87;;
15159;SDS011;7680;48.800;9.680;2023-04-06T07:26:29;12.10;;;11.00;;
15159;SDS011;7680;48.800;9.680;2023-04-06T07:29:02;13.10;;;12.00;;
15159;SDS011;7680;48.800;9.680;2023-04-06T07:31:36;12.00;;;10.90;;
15159;SDS011;7680;48.800;9.680;2023-04-06T07:34:09;11.73;;;10.63;;
15159;SDS011;7680;48.800;9.680;2023-04-06T07:36:42;19.30;;;12.17;;
15159;SDS011;7680;48.800;9.680;2023-04-06T07:39:15;12.17;;;11.17;;
15159;SDS011;7680;48.800;9.680;2023-04-06T07:41:48;12.70;;;11.50;;
15159;SDS011;7680;48.800;9.680;2023-04-06T07:44:21;12.40;;;11.40;;
15159;SDS011;7680;48.800;9.680;2023-04-06T07:46:56;13.07;;;11.77;;
15159;SDS011;7680;48.800;9.680;2023-04-06T07:49:29;13.67;;;12.37;;
15159;SDS011;7680;48.800;9.680;2023-04-06T07:52:03;13.68;;;12.40;;
15159;SDS011;7680;48.800;9.680;2023-04-06T07:54:36;12.63;;;11.63;;
15159;SDS011;7680;48.800;9.680;2023-04-06T07:57:09;12.10;;;11.00;;
15159;SDS011;7680;48.800;9.680;2023-04-06T07:59:42;13.68;;;12.48;;
15159;SDS011;7680;48.800;9.680;2023-04-06T08:02:17;14.23;;;12.98;;
15159;SDS011;7680;48.800;9.680;2023-04-06T08:04:50;13.00;;;11.77;;
15159;SDS011;7680;48.800;9.680;2023-04-06T08:07:23;13.07;;;11.93;;
15159;SDS011;7680;48.800;9.680;2023-04-06T08:09:56;13.55;;;12.40;;
15159;SDS011;7680;48.800;9.680;2023-04-06T08:12:29;13.88;;;12.48;;
15159;SDS011;7680;48.800;9.680;2023-04-06T08:15:05;14.30;;;13.00;;
15159;SDS011;7680;48.800;9.680;2023-04-06T08:17:40;12.55;;;11.45;;
15159;SDS011;7680;48.800;9.680;2023-04-06T08:20:13;13.20;;;12.00;;
15159;SDS011;7680;48.800;9.680;2023-04-06T08:22:46;14.20;;;12.90;;
15159;SDS011;7680;48.800;9.680;2023-04-06T08:25:23;13.23;;;12.00;;
15159;SDS011;7680;48.800;9.680;2023-04-06T08:27:56;13.63;;;12.43;;
15159;SDS011;7680;48.800;9.680;2023-04-06T08:34:42;14.45;;;13.05;;
15159;SDS011;7680;48.800;9.680;2023-04-06T08:37:15;13.80;;;12.52;;
15159;SDS011;7680;48.800;9.680;2023-04-06T08:39:48;13.35;;;12.18;;
15159;SDS011;7680;48.800;9.680;2023-04-06T08:42:22;13.10;;;11.80;;
15159;SDS011;7680;48.800;9.680;2023-04-06T08:44:58;13.70;;;12.38;;
15159;SDS011;7680;48.800;9.680;2023-04-06T08:47:32;14.35;;;13.00;;
15159;SDS011;7680;48.800;9.680;2023-04-06T08:50:10;14.13;;;12.93;;
15159;SDS011;7680;48.800;9.680;2023-04-06T08:52:43;13.95;;;12.55;;
15159;SDS011;7680;48.800;9.680;2023-04-06T08:55:20;13.95;;;12.80;;
15159;SDS011;7680;48.800;9.680;2023-04-06T08:57:55;14.10;;;12.80;;
15159;SDS011;7680;48.800;9.680;2023-04-06T09:00:28;12.75;;;11.52;;
15159;SDS011;7680;48.800;9.680;2023-04-06T09:03:02;13.50;;;12.25;;
15159;SDS011;7680;48.800;9.680;2023-04-06T09:05:39;13.43;;;12.13;;
15159;SDS011;7680;48.800;9.680;2023-04-06T09:08:13;14.75;;;13.35;;
15159;SDS011;7680;48.800;9.680;2023-04-06T09:10:46;13.93;;;12.63;;
15159;SDS011;7680;48.800;9.680;2023-04-06T09:13:23;13.77;;;12.57;;
15159;SDS011;7680;48.800;9.680;2023-04-06T09:15:59;13.20;;;12.00;;
15159;SDS011;7680;48.800;9.680;2023-04-06T09:18:33;13.20;;;11.90;;
15159;SDS011;7680;48.800;9.680;2023-04-06T09:21:08;13.35;;;11.98;;
15159;SDS011;7680;48.800;9.680;2023-04-06T09:23:42;13.23;;;12.02;;
15159;SDS011;7680;48.800;9.680;2023-04-06T09:26:16;12.52;;;11.43;;
15159;SDS011;7680;48.800;9.680;2023-04-06T09:28:54;11.65;;;10.52;;
15159;SDS011;7680;48.800;9.680;2023-04-06T09:31:29;11.52;;;10.38;;
15159;SDS011;7680;48.800;9.680;2023-04-06T09:34:04;10.40;;;9.50;;
15159;SDS011;7680;48.800;9.680;2023-04-06T09:36:39;9.38;;;8.48;;
15159;SDS011;7680;48.800;9.680;2023-04-06T09:39:13;10.05;;;9.00;;
15159;SDS011;7680;48.800;9.680;2023-04-06T09:41:48;10.38;;;9.32;;
15159;SDS011;7680;48.800;9.680;2023-04-06T09:44:22;11.20;;;10.13;;
15159;SDS011;7680;48.800;9.680;2023-04-06T09:46:56;11.02;;;10.02;;
15159;SDS011;7680;48.800;9.680;2023-04-06T09:49:31;10.77;;;9.77;;
15159;SDS011;7680;48.800;9.680;2023-04-06T09:52:07;9.70;;;8.70;;
15159;SDS011;7680;48.800;9.680;2023-04-06T09:54:43;8.30;;;7.50;;
15159;SDS011;7680;48.800;9.680;2023-04-06T09:57:21;8.40;;;7.72;;
15159;SDS011;7680;48.800;9.680;2023-04-06T10:00:01;9.75;;;8.85;;
15159;SDS011;7680;48.800;9.680;2023-04-06T10:02:42;11.52;;;10.43;;
15159;SDS011;7680;48.800;9.680;2023-04-06T10:05:25;10.50;;;9.60;;
15159;SDS011;7680;48.800;9.680;2023-04-06T10:08:07;10.25;;;9.27;;
15159;SDS011;7680;48.800;9.680;2023-04-06T10:10:42;10.10;;;9.20;;
15159;SDS011;7680;48.800;9.680;2023-04-06T10:13:16;9.88;;;9.07;;
15159;SDS011;7680;48.800;9.680;2023-04-06T10:15:51;10.15;;;9.25;;
15159;SDS011;7680;48.800;9.680;2023-04-06T10:18:25;10.65;;;9.65;;
15159;SDS011;7680;48.800;9.680;2023-04-06T10:21:00;10.70;;;9.80;;
15159;SDS011;7680;48.800;9.680;2023-04-06T10:23:41;9.55;;;8.65;;
15159;SDS011;7680;48.800;9.680;2023-04-06T10:26:20;9.65;;;8.82;;
15159;SDS011;7680;48.800;9.680;2023-04-06T10:28:54;9.05;;;8.20;;
15159;SDS011;7680;48.800;9.680;2023-04-06T10:31:27;9.23;;;8.38;;
15159;SDS011;7680;48.800;9.680;2023-04-06T10:34:01;8.13;;;7.38;;
15159;SDS011;7680;48.800;9.680;2023-04-06T10:36:35;10.27;;;9.38;;
15159;SDS011;7680;48.800;9.680;2023-04-06T10:39:10;10.50;;;9.50;;
15159;SDS011;7680;48.800;9.680;2023-04-06T10:41:43;9.55;;;8.75;;
15159;SDS011;7680;48.800;9.680;2023-04-06T10:44:19;9.00;;;8.25;;
15159;SDS011;7680;48.800;9.680;2023-04-06T10:46:54;9.43;;;8.52;;
15159;SDS011;7680;48.800;9.680;2023-04-06T10:49:31;10.02;;;9.13;;
15159;SDS011;7680;48.800;9.680;2023-04-06T10:52:04;9.93;;;8.93;;
15159;SDS011;7680;48.800;9.680;2023-04-06T10:54:41;10.88;;;9.70;;
15159;SDS011;7680;48.800;9.680;2023-04-06T10:57:27;9.43;;;8.55;;
15159;SDS011;7680;48.800;9.680;2023-04-06T11:00:00;9.48;;;8.70;;
15159;SDS011;7680;48.800;9.680;2023-04-06T11:02:34;10.15;;;9.25;;
15159;SDS011;7680;48.800;9.680;2023-04-06T11:05:07;10.52;;;9.55;;
15159;SDS011;7680;48.800;9.680;2023-04-06T11:07:44;10.57;;;9.52;;
15159;SDS011;7680;48.800;9.680;2023-04-06T11:10:21;10.25;;;9.38;;
15159;SDS011;7680;48.800;9.680;2023-04-06T11:12:55;10.07;;;9.15;;
15159;SDS011;7680;48.800;9.680;2023-04-06T11:15:33;10.05;;;9.10;;
15159;SDS011;7680;48.800;9.680;2023-04-06T11:18:10;9.77;;;8.85;;
15159;SDS011;7680;48.800;9.680;2023-04-06T11:20:46;9.93;;;9.13;;
15159;SDS011;7680;48.800;9.680;2023-04-06T11:23:23;9.95;;;9.15;;
15159;SDS011;7680;48.800;9.680;2023-04-06T11:25:58;10.55;;;9.55;;
15159;SDS011;7680;48.800;9.680;2023-04-06T11:28:31;10.07;;;9.18;;
15159;SDS011;7680;48.800;9.680;2023-04-06T11:31:05;9.73;;;8.82;;
15159;SDS011;7680;48.800;9.680;2023-04-06T11:33:38;10.15;;;9.25;;
15159;SDS011;7680;48.800;9.680;2023-04-06T11:36:11;9.15;;;8.38;;
15159;SDS011;7680;48.800;9.680;2023-04-06T11:38:46;9.43;;;8.63;;
15159;SDS011;7680;48.800;9.680;2023-04-06T11:41:24;8.93;;;8.13;;
15159;SDS011;7680;48.800;9.680;2023-04-06T11:44:00;9.30;;;8.30;;
15159;SDS011;7680;48.800;9.680;2023-04-06T11:46:33;8.75;;;8.02;;
15159;SDS011;7680;48.800;9.680;2023-04-06T11:49:07;8.65;;;7.85;;
15159;SDS011;7680;48.800;9.680;2023-04-06T11:51:40;8.30;;;7.65;;
15159;SDS011;7680;48.800;9.680;2023-04-06T11:54:13;9.40;;;8.60;;
15159;SDS011;7680;48.800;9.680;2023-04-06T11:56:49;9.27;;;8.48;;
15159;SDS011;7680;48.800;9.680;2023-04-06T11:59:22;8.90;;;8.10;;
15159;SDS011;7680;48.800;9.680;2023-04-06T12:01:55;10.00;;;9.10;;
15159;SDS011;7680;48.800;9.680;2023-04-06T12:04:29;9.45;;;8.63;;
15159;SDS011;7680;48.800;9.680;2023-04-06T12:07:02;9.38;;;8.57;;
15159;SDS011;7680;48.800;9.680;2023-04-06T12:09:36;9.73;;;8.82;;
15159;SDS011;7680;48.800;9.680;2023-04-06T12:12:11;8.80;;;8.00;;
15159;SDS011;7680;48.800;9.680;2023-04-06T12:14:44;8.98;;;8.18;;
15159;SDS011;7680;48.800;9.680;2023-04-06T12:17:17;10.27;;;9.25;;
15159;SDS011;7680;48.800;9.680;2023-04-06T12:19:51;10.00;;;9.00;;
15159;SDS011;7680;48.800;9.680;2023-04-06T12:22:24;8.93;;;8.13;;
15159;SDS011;7680;48.800;9.680;2023-04-06T12:24:57;9.52;;;8.63;;
15159;SDS011;7680;48.800;9.680;2023-04-06T12:27:32;9.77;;;8.75;;
15159;SDS011;7680;48.800;9.680;2023-04-06T12:30:05;8.68;;;7.78;;
15159;SDS011;7680;48.800;9.680;2023-04-06T12:32:40;7.80;;;7.20;;
15159;SDS011;7680;48.800;9.680;2023-04-06T12:35:13;8.20;;;7.50;;
15159;SDS011;7680;48.800;9.680;2023-04-06T12:37:47;7.88;;;7.18;;
15159;SDS011;7680;48.800;9.680;2023-04-06T12:40:20;7.07;;;6.47;;
15159;SDS011;7680;48.800;9.680;2023-04-06T12:42:55;7.50;;;6.80;;
15159;SDS011;7680;48.800;9.680;2023-04-06T12:45:28;6.97;;;6.47;;
15159;SDS011;7680;48.800;9.680;2023-04-06T12:48:03;8.20;;;7.50;;
15159;SDS011;7680;48.800;9.680;2023-04-06T12:50:36;7.22;;;6.63;;
15159;SDS011;7680;48.800;9.680;2023-04-06T12:53:09;7.38;;;6.80;;
15159;SDS011;7680;48.800;9.680;2023-04-06T12:55:42;7.88;;;7.25;;
15159;SDS011;7680;48.800;9.680;2023-04-06T12:58:17;7.68;;;6.95;;
15159;SDS011;7680;48.800;9.680;2023-04-06T13:00:50;7.40;;;6.78;;
15159;SDS011;7680;48.800;9.680;2023-04-06T13:03:23;6.90;;;6.30;;
15159;SDS011;7680;48.800;9.680;2023-04-06T13:05:56;6.90;;;6.30;;
15159;SDS011;7680;48.800;9.680;2023-04-06T13:08:31;7.65;;;6.95;;
15159;SDS011;7680;48.800;9.680;2023-04-06T13:11:05;7.10;;;6.50;;
15159;SDS011;7680;48.800;9.680;2023-04-06T13:13:41;6.68;;;6.18;;
15159;SDS011;7680;48.800;9.680;2023-04-06T13:16:14;7.07;;;6.30;;
15159;SDS011;7680;48.800;9.680;2023-04-06T13:18:47;6.47;;;5.88;;
15159;SDS011;7680;48.800;9.680;2023-04-06T13:21:21;7.20;;;6.50;;
15159;SDS011;7680;48.800;9.680;2023-04-06T13:23:54;6.53;;;5.93;;
15159;SDS011;7680;48.800;9.680;2023-04-06T13:26:27;5.88;;;5.38;;
15159;SDS011;7680;48.800;9.680;2023-04-06T13:29:02;6.90;;;6.30;;
15159;SDS011;7680;48.800;9.680;2023-04-06T13:31:35;6.57;;;5.97;;
15159;SDS011;7680;48.800;9.680;2023-04-06T13:34:08;6.70;;;6.10;;
15159;SDS011;7680;48.800;9.680;2023-04-06T13:36:41;6.60;;;6.00;;
15159;SDS011;7680;48.800;9.680;2023-04-06T13:39:14;6.65;;;6.05;;
15159;SDS011;7680;48.800;9.680;2023-04-06T13:41:47;6.88;;;6.28;;
15159;SDS011;7680;48.800;9.680;2023-04-06T13:44:21;6.32;;;5.72;;
15159;SDS011;7680;48.800;9.680;2023-04-06T13:46:55;7.10;;;6.50;;
15159;SDS011;7680;48.800;9.680;2023-04-06T13:49:29;7.03;;;6.43;;
15159;SDS011;7680;48.800;9.680;2023-04-06T13:52:02;6.40;;;5.80;;
15159;SDS011;7680;48.800;9.680;2023-04-06T13:54:36;7.05;;;6.20;;
15159;SDS011;7680;48.800;9.680;2023-04-06T13:57:09;7.43;;;6.82;;
15159;SDS011;7680;48.800;9.680;2023-04-06T13:59:44;7.65;;;7.00;;
15159;SDS011;7680;48.800;9.680;2023-04-06T14:02:17;7.25;;;6.55;;
15159;SDS011;7680;48.800;9.680;2023-04-06T14:04:51;6.35;;;5.85;;
15159;SDS011;7680;48.800;9.680;2023-04-06T14:07:24;6.28;;;5.68;;
15159;SDS011;7680;48.800;9.680;2023-04-06T14:09:57;7.55;;;6.80;;
15159;SDS011;7680;48.800;9.680;2023-04-06T14:12:31;6.90;;;6.18;;
15159;SDS011;7680;48.800;9.680;2023-04-06T14:15:06;6.57;;;5.95;;
15159;SDS011;7680;48.800;9.680;2023-04-06T14:17:41;6.50;;;5.88;;
15159;SDS011;7680;48.800;9.680;2023-04-06T14:20:15;6.45;;;5.85;;
15159;SDS011;7680;48.800;9.680;2023-04-06T14:22:48;8.20;;;5.82;;
15159;SDS011;7680;48.800;9.680;2023-04-06T14:25:23;5.38;;;4.97;;
15159;SDS011;7680;48.800;9.680;2023-04-06T14:27:57;5.60;;;5.10;;
15159;SDS011;7680;48.800;9.680;2023-04-06T14:30:31;6.05;;;5.45;;
15159;SDS011;7680;48.800;9.680;2023-04-06T14:33:04;5.95;;;5.45;;
15159;SDS011;7680;48.800;9.680;2023-04-06T14:35:38;5.88;;;5.30;;
15159;SDS011;7680;48.800;9.680;2023-04-06T14:38:11;5.85;;;5.35;;
15159;SDS011;7680;48.800;9.680;2023-04-06T14:40:44;6.40;;;5.47;;
15159;SDS011;7680;48.800;9.680;2023-04-06T14:43:17;6.05;;;5.45;;
15159;SDS011;7680;48.800;9.680;2023-04-06T14:45:52;10.10;;;6.35;;
15159;SDS011;7680;48.800;9.680;2023-04-06T14:48:26;7.18;;;5.90;;
15159;SDS011;7680;48.800;9.680;2023-04-06T14:50:59;5.60;;;5.10;;
15159;SDS011;7680;48.800;9.680;2023-04-06T14:53:32;6.97;;;6.32;;
15159;SDS011;7680;48.800;9.680;2023-04-06T14:56:05;6.00;;;5.50;;
15159;SDS011;7680;48.800;9.680;2023-04-06T14:58:39;11.35;;;7.45;;
15159;SDS011;7680;48.800;9.680;2023-04-06T15:01:13;6.97;;;5.82;;
15159;SDS011;7680;48.800;9.680;2023-04-06T15:03:46;5.90;;;5.40;;
15159;SDS011;7680;48.800;9.680;2023-04-06T15:06:20;6.40;;;5.80;;
15159;SDS011;7680;48.800;9.680;2023-04-06T15:08:53;7.85;;;6.07;;
15159;SDS011;7680;48.800;9.680;2023-04-06T15:11:27;6.88;;;6.15;;
15159;SDS011;7680;48.800;9.680;2023-04-06T15:14:00;6.78;;;6.18;;
15159;SDS011;7680;48.800;9.680;2023-04-06T15:16:34;6.70;;;6.03;;
15159;SDS011;7680;48.800;9.680;2023-04-06T15:19:07;6.68;;;6.07;;
15159;SDS011;7680;48.800;9.680;2023-04-06T15:21:42;5.75;;;5.25;;
15159;SDS011;7680;48.800;9.680;2023-04-06T15:24:15;6.50;;;5.88;;
15159;SDS011;7680;48.800;9.680;2023-04-06T15:26:48;7.30;;;6.60;;